createdAt,value
2022-07-28T00:01:25.043Z,27.10
2022-07-28T00:04:11.991Z,27.52
2022-07-28T00:06:45.981Z,28.92
2022-07-28T00:09:32.774Z,26.52
2022-07-28T00:12:05.870Z,29.02
2022-07-28T00:14:52.775Z,29.63
2022-07-28T00:17:26.032Z,27.02
2022-07-28T00:20:20.796Z,27.23
2022-07-28T00:23:14.893Z,26.60
2022-07-28T00:26:01.805Z,26.10
2022-07-28T00:28:35.197Z,27.40
2022-07-28T00:31:21.884Z,29.75
2022-07-28T00:33:54.877Z,27.33
2022-07-28T00:36:41.804Z,27.30
2022-07-28T00:39:21.829Z,25.52
2022-07-28T00:42:08.800Z,27.20
2022-07-28T00:44:48.819Z,28.30
2022-07-28T00:47:42.794Z,26.55
2022-07-28T00:50:36.830Z,26.15
2022-07-28T00:53:30.824Z,24.70
2022-07-28T00:56:17.880Z,25.08
2022-07-28T00:58:50.929Z,24.92
2022-07-28T01:01:37.895Z,24.90
2022-07-28T01:04:12.158Z,25.92
2022-07-28T01:07:13.826Z,28.05
2022-07-28T01:10:05.918Z,29.50
2022-07-28T01:13:02.822Z,24.52
2022-07-28T01:15:44.031Z,25.30
2022-07-28T01:18:38.885Z,26.27
2022-07-28T01:21:24.831Z,24.45
2022-07-28T01:24:40.869Z,26.77
2022-07-28T01:27:48.815Z,26.02
2022-07-28T01:30:59.915Z,23.95
2022-07-28T01:33:51.934Z,24.98
2022-07-28T01:36:43.902Z,25.15
2022-07-28T01:39:18.971Z,27.83
2022-07-28T01:42:08.848Z,27.27
2022-07-28T01:44:48.033Z,26.55
2022-07-28T01:47:39.824Z,25.75
2022-07-28T01:50:23.864Z,25.20
2022-07-28T01:53:19.027Z,28.00
2022-07-28T01:56:16.900Z,27.90
2022-07-28T01:59:13.862Z,25.88
2022-07-28T02:02:01.942Z,26.90
2022-07-28T02:04:44.935Z,27.67
2022-07-28T02:07:33.874Z,27.42
2022-07-28T02:10:08.959Z,25.70
2022-07-28T02:12:57.859Z,27.33
2022-07-28T02:15:35.029Z,25.23
2022-07-28T02:18:21.841Z,24.67
2022-07-28T02:20:55.941Z,26.20
2022-07-28T02:23:45.929Z,26.98
2022-07-28T02:26:28.874Z,28.02
2022-07-28T02:29:47.979Z,26.67
2022-07-28T02:32:28.114Z,26.75
2022-07-28T02:35:27.914Z,28.40
2022-07-28T02:38:35.886Z,28.77
2022-07-28T02:41:31.900Z,29.20
2022-07-28T02:44:15.398Z,28.95
2022-07-28T02:47:05.898Z,27.42
2022-07-28T02:49:48.878Z,27.77
2022-07-28T02:52:36.875Z,28.65
2022-07-28T02:55:10.976Z,25.27
2022-07-28T02:57:57.875Z,28.48
2022-07-28T03:00:31.973Z,26.73
2022-07-28T03:03:18.867Z,25.45
2022-07-28T03:05:53.015Z,27.13
2022-07-28T03:08:39.872Z,27.75
2022-07-28T03:11:24.942Z,27.63
2022-07-28T03:14:12.218Z,26.60
2022-07-28T03:16:46.015Z,24.88
2022-07-28T03:19:39.900Z,23.83
2022-07-28T03:22:26.934Z,25.15
2022-07-28T03:25:09.897Z,25.25
2022-07-28T03:28:05.896Z,24.17
2022-07-28T03:31:00.957Z,24.95
2022-07-28T03:33:35.048Z,23.38
2022-07-28T03:36:25.897Z,23.50
2022-07-28T03:39:11.796Z,25.08
2022-07-28T03:41:59.902Z,24.92
2022-07-28T03:44:34.035Z,25.45
2022-07-28T03:47:21.905Z,25.05
2022-07-28T03:49:55.015Z,23.77
2022-07-28T03:52:41.903Z,24.02
2022-07-28T03:55:16.020Z,25.27
2022-07-28T03:58:05.915Z,24.77
2022-07-28T04:00:38.998Z,24.83
2022-07-28T04:03:36.609Z,26.02
2022-07-28T04:06:19.173Z,26.77
2022-07-28T04:09:05.917Z,27.15
2022-07-28T04:11:39.038Z,25.05
2022-07-28T04:14:26.924Z,25.30
2022-07-28T04:17:00.138Z,24.40
2022-07-28T04:19:54.001Z,23.85
2022-07-28T04:22:47.928Z,24.02
2022-07-28T04:25:41.933Z,27.35
2022-07-28T04:28:35.925Z,24.38
2022-07-28T04:31:22.967Z,21.73
2022-07-28T04:33:56.196Z,24.00
2022-07-28T04:36:48.908Z,21.27
2022-07-28T04:39:22.007Z,23.55
2022-07-28T04:42:08.930Z,26.83
2022-07-28T04:44:42.518Z,26.80
2022-07-28T04:47:29.932Z,23.08
2022-07-28T04:50:04.042Z,22.85
2022-07-28T04:52:50.955Z,22.00
2022-07-28T04:55:25.019Z,23.55
2022-07-28T04:58:12.947Z,22.55
2022-07-28T05:00:46.095Z,20.73
2022-07-28T05:03:36.330Z,19.75
2022-07-28T05:06:16.979Z,22.42
2022-07-28T05:09:10.944Z,22.42
2022-07-28T05:11:57.948Z,21.48
2022-07-28T05:14:38.933Z,21.48
2022-07-28T05:17:32.983Z,20.73
2022-07-28T05:20:26.975Z,21.23
2022-07-28T05:23:21.966Z,20.75
2022-07-28T05:26:15.980Z,22.52
2022-07-28T05:29:09.975Z,21.50
2022-07-28T05:32:16.559Z,20.05
2022-07-28T05:35:05.961Z,21.17
2022-07-28T05:37:43.924Z,19.10
2022-07-28T05:40:30.954Z,18.17
2022-07-28T05:43:04.054Z,19.27
2022-07-28T05:45:51.050Z,20.30
2022-07-28T05:48:33.020Z,19.77
2022-07-28T05:51:26.973Z,18.40
2022-07-28T05:54:14.250Z,20.38
2022-07-28T05:56:54.973Z,20.80
2022-07-28T05:59:48.963Z,18.35
2022-07-28T06:02:43.150Z,19.88
2022-07-28T06:05:29.999Z,20.35
2022-07-28T06:08:04.061Z,21.42
2022-07-28T06:11:05.997Z,20.33
2022-07-28T06:13:39.055Z,22.13
2022-07-28T06:16:27.075Z,17.70
2022-07-28T06:19:00.073Z,18.05
2022-07-28T06:21:46.999Z,18.77
2022-07-28T06:24:26.998Z,16.75
2022-07-28T06:27:13.985Z,15.73
2022-07-28T06:29:54.017Z,17.60
2022-07-28T06:32:47.982Z,17.25
2022-07-28T06:35:48.234Z,18.23
2022-07-28T06:38:39.008Z,18.17
2022-07-28T06:41:12.091Z,18.67
2022-07-28T06:43:59.009Z,20.75
2022-07-28T06:46:42.052Z,20.33
2022-07-28T06:49:29.082Z,21.13
2022-07-28T06:52:03.081Z,20.08
2022-07-28T06:54:50.074Z,18.38
2022-07-28T06:57:33.635Z,20.90
2022-07-28T07:00:28.133Z,21.52
2022-07-28T07:03:15.010Z,20.38
2022-07-28T07:05:49.007Z,20.08
2022-07-28T07:08:38.031Z,21.20
2022-07-28T07:11:18.020Z,21.95
2022-07-28T07:14:12.056Z,21.40
2022-07-28T07:17:06.020Z,19.38
2022-07-28T07:19:53.053Z,19.90
2022-07-28T07:22:47.036Z,19.80
2022-07-28T07:25:41.009Z,19.25
2022-07-28T07:28:28.047Z,19.15
2022-07-28T07:31:01.188Z,22.07
2022-07-28T07:33:48.058Z,19.55
2022-07-28T07:36:21.578Z,19.15
2022-07-28T07:39:08.017Z,17.08
2022-07-28T07:41:48.049Z,18.40
2022-07-28T07:44:35.021Z,16.63
2022-07-28T07:47:08.184Z,18.20
2022-07-28T07:49:56.042Z,19.73
2022-07-28T07:52:43.189Z,17.35
2022-07-28T07:55:34.451Z,17.70
2022-07-28T07:58:12.160Z,16.50
2022-07-28T08:01:00.085Z,18.10
2022-07-28T08:03:33.152Z,20.58
2022-07-28T08:06:26.506Z,20.25
2022-07-28T08:09:01.123Z,17.60
2022-07-28T08:11:48.066Z,19.52
2022-07-28T08:14:21.346Z,20.80
2022-07-28T08:17:08.046Z,18.92
2022-07-28T08:19:41.643Z,21.45
2022-07-28T08:22:35.070Z,18.52
2022-07-28T08:25:29.097Z,20.55
2022-07-28T08:28:23.073Z,18.33
2022-07-28T08:31:18.099Z,17.63
2022-07-28T08:34:31.201Z,19.17
2022-07-28T08:37:19.065Z,20.30
2022-07-28T08:39:52.153Z,18.10
2022-07-28T08:42:50.071Z,23.05
2022-07-28T08:45:32.506Z,17.83
2022-07-28T08:48:32.074Z,19.75
2022-07-28T08:51:19.150Z,19.25
2022-07-28T08:53:53.185Z,16.45
2022-07-28T08:56:41.085Z,22.15
2022-07-28T08:59:22.205Z,19.38
2022-07-28T09:02:09.163Z,18.67
2022-07-28T09:04:42.431Z,17.45
2022-07-28T09:07:34.101Z,19.65
2022-07-28T09:10:07.364Z,21.33
2022-07-28T09:12:54.202Z,18.40
2022-07-28T09:15:27.376Z,18.27
2022-07-28T09:18:14.127Z,17.92
2022-07-28T09:20:50.173Z,17.83
2022-07-28T09:23:55.123Z,19.15
2022-07-28T09:26:38.127Z,17.63
2022-07-28T09:29:38.087Z,18.45
2022-07-28T09:32:27.189Z,19.38
2022-07-28T09:35:00.179Z,17.30
2022-07-28T09:37:47.114Z,16.55
2022-07-28T09:40:28.104Z,22.50
2022-07-28T09:43:23.125Z,23.17
2022-07-28T09:46:17.290Z,22.92
2022-07-28T09:48:56.559Z,18.67
2022-07-28T09:51:43.118Z,18.90
2022-07-28T09:54:28.113Z,20.30
2022-07-28T09:57:24.208Z,18.17
2022-07-28T10:00:19.115Z,17.20
2022-07-28T10:02:56.298Z,18.38
2022-07-28T10:05:50.788Z,19.33
2022-07-28T10:08:45.247Z,17.00
2022-07-28T10:11:39.315Z,18.77
2022-07-28T10:14:23.164Z,20.15
2022-07-28T10:17:19.134Z,21.15
2022-07-28T10:20:08.124Z,17.75
2022-07-28T10:22:49.145Z,21.73
2022-07-28T10:25:41.132Z,21.65
2022-07-28T10:28:32.236Z,18.98
2022-07-28T10:31:24.214Z,18.88
2022-07-28T10:34:00.593Z,21.00
2022-07-28T10:36:49.151Z,20.80
2022-07-28T10:39:26.463Z,18.65
2022-07-28T10:42:17.147Z,21.33
2022-07-28T10:44:51.292Z,20.30
2022-07-28T10:47:38.147Z,18.90
2022-07-28T10:50:12.227Z,19.25
2022-07-28T10:52:59.179Z,18.77
2022-07-28T10:55:57.170Z,20.85
2022-07-28T10:59:20.218Z,19.38
2022-07-28T11:02:09.263Z,21.02
2022-07-28T11:04:52.403Z,18.42
2022-07-28T11:07:46.172Z,20.00
2022-07-28T11:10:31.168Z,20.90
2022-07-28T11:13:51.559Z,20.35
2022-07-28T11:16:41.233Z,18.65
2022-07-28T11:19:40.123Z,20.60
2022-07-28T11:22:41.258Z,21.80
2022-07-28T11:25:35.178Z,19.95
2022-07-28T11:28:22.300Z,21.23
2022-07-28T11:30:58.338Z,19.88
2022-07-28T11:34:01.186Z,22.13
2022-07-28T11:37:15.323Z,20.23
2022-07-28T11:40:03.167Z,20.70
2022-07-28T11:42:38.321Z,19.45
2022-07-28T11:45:38.451Z,20.02
2022-07-28T11:48:23.486Z,18.70
2022-07-28T11:51:10.171Z,20.85
2022-07-28T11:54:04.214Z,21.88
2022-07-28T11:56:58.237Z,19.20
2022-07-28T11:59:54.276Z,22.40
2022-07-28T12:02:31.763Z,22.48
2022-07-28T12:05:20.226Z,21.05
2022-07-28T12:07:58.550Z,23.02
2022-07-28T12:10:54.955Z,20.88
2022-07-28T12:13:33.337Z,18.50
2022-07-28T12:16:21.298Z,23.00
2022-07-28T12:19:10.050Z,21.13
2022-07-28T12:22:06.220Z,21.60
2022-07-28T12:25:00.216Z,23.55
2022-07-28T12:27:47.256Z,20.08
2022-07-28T12:30:40.225Z,20.48
2022-07-28T12:33:39.266Z,21.50
2022-07-28T12:36:28.224Z,22.17
2022-07-28T12:39:02.420Z,21.08
2022-07-28T12:41:49.255Z,20.00
2022-07-28T12:44:22.384Z,19.55
2022-07-28T12:47:11.258Z,21.45
2022-07-28T12:49:46.411Z,18.80
2022-07-28T12:52:33.258Z,21.90
2022-07-28T12:55:06.720Z,23.67
2022-07-28T12:57:54.223Z,22.08
2022-07-28T13:00:38.395Z,21.17
2022-07-28T13:03:31.257Z,20.33
2022-07-28T13:06:22.252Z,21.45
2022-07-28T13:09:15.122Z,21.20
2022-07-28T13:11:56.348Z,18.63
2022-07-28T13:14:54.234Z,18.55
2022-07-28T13:18:05.256Z,18.50
2022-07-28T13:21:05.259Z,20.50
2022-07-28T13:23:52.247Z,18.42
2022-07-28T13:26:25.343Z,18.83
2022-07-28T13:29:14.258Z,20.17
2022-07-28T13:31:47.486Z,19.20
2022-07-28T13:34:34.248Z,18.58
2022-07-28T13:37:07.452Z,19.40
2022-07-28T13:39:54.906Z,20.15
2022-07-28T13:42:37.259Z,18.33
2022-07-28T13:45:31.316Z,18.33
2022-07-28T13:48:18.247Z,20.27
2022-07-28T13:50:53.355Z,20.55
2022-07-28T13:53:44.251Z,19.58
2022-07-28T13:56:17.350Z,18.42
2022-07-28T13:59:16.252Z,18.02
2022-07-28T14:01:49.476Z,19.80
2022-07-28T14:04:36.305Z,17.17
2022-07-28T14:07:13.357Z,19.92
2022-07-28T14:10:07.289Z,16.58
2022-07-28T14:12:41.423Z,17.83
2022-07-28T14:15:32.277Z,17.92
2022-07-28T14:18:12.351Z,21.30
2022-07-28T14:21:09.270Z,18.38
2022-07-28T14:23:56.332Z,19.35
2022-07-28T14:26:36.632Z,18.48
2022-07-28T14:29:25.147Z,18.60
2022-07-28T14:32:01.404Z,20.48
2022-07-28T14:34:48.285Z,18.90
2022-07-28T14:37:21.403Z,18.42
2022-07-28T14:40:08.330Z,19.65
2022-07-28T14:42:41.396Z,19.13
2022-07-28T14:45:28.325Z,20.73
2022-07-28T14:48:01.401Z,20.73
2022-07-28T14:50:48.341Z,18.35
2022-07-28T14:53:22.284Z,21.85
2022-07-28T14:56:02.336Z,21.80
2022-07-28T14:58:42.430Z,20.65
2022-07-28T15:01:22.374Z,19.27
2022-07-28T15:04:02.417Z,18.98
2022-07-28T15:06:42.331Z,21.33
2022-07-28T15:09:22.335Z,19.20
2022-07-28T15:12:02.369Z,20.48
2022-07-28T15:14:56.322Z,20.02
2022-07-28T15:17:50.335Z,18.30
2022-07-28T15:20:38.335Z,18.88
2022-07-28T15:23:13.907Z,20.15
2022-07-28T15:26:00.339Z,20.10
2022-07-28T15:28:43.293Z,18.48
2022-07-28T15:31:37.424Z,17.33
2022-07-28T15:34:26.325Z,19.88
2022-07-28T15:37:00.997Z,21.65
2022-07-28T15:39:47.363Z,19.83
2022-07-28T15:42:20.447Z,19.42
2022-07-28T15:45:07.359Z,16.52
2022-07-28T15:47:40.455Z,17.52
2022-07-28T15:50:27.359Z,18.40
2022-07-28T15:53:00.406Z,17.70
2022-07-28T15:55:51.292Z,17.38
2022-07-28T15:58:33.357Z,16.73
2022-07-28T16:01:27.401Z,19.33
2022-07-28T16:04:14.690Z,18.30
2022-07-28T16:07:06.891Z,16.90
2022-07-28T16:09:53.352Z,21.60
2022-07-28T16:12:33.403Z,16.98
2022-07-28T16:15:27.403Z,17.45
2022-07-28T16:18:21.358Z,16.88
2022-07-28T16:21:15.407Z,17.63
2022-07-28T16:24:02.374Z,16.90
2022-07-28T16:26:36.545Z,16.77
2022-07-28T16:29:23.404Z,17.42
2022-07-28T16:32:03.389Z,17.33
2022-07-28T16:34:58.393Z,16.98
2022-07-28T16:37:53.397Z,17.23
2022-07-28T16:40:47.409Z,17.00
2022-07-28T16:43:34.377Z,17.88
2022-07-28T16:46:07.527Z,15.40
2022-07-28T16:48:54.439Z,17.35
2022-07-28T16:51:27.431Z,18.52
2022-07-28T16:54:14.785Z,18.52
2022-07-28T16:56:48.462Z,16.77
2022-07-28T16:59:37.670Z,19.10
2022-07-28T17:02:28.413Z,19.20
2022-07-28T17:05:19.422Z,19.90
2022-07-28T17:07:52.589Z,17.75
2022-07-28T17:10:39.403Z,17.83
2022-07-28T17:13:15.510Z,19.05
2022-07-28T17:16:02.470Z,15.50
2022-07-28T17:18:35.503Z,17.98
2022-07-28T17:21:30.423Z,19.10
2022-07-28T17:24:18.950Z,18.45
2022-07-28T17:30:00.408Z,20.88
2022-07-28T17:32:33.953Z,18.73
2022-07-28T17:35:31.434Z,19.35
2022-07-28T17:38:08.349Z,18.85
2022-07-28T17:40:57.407Z,19.23
2022-07-28T17:43:32.378Z,19.45
2022-07-28T17:46:27.441Z,19.90
2022-07-28T17:49:23.461Z,17.65
2022-07-28T17:52:14.434Z,19.20
2022-07-28T17:55:13.412Z,17.98
2022-07-28T17:58:03.419Z,18.10
2022-07-28T18:00:44.443Z,18.42
2022-07-28T18:03:59.468Z,19.67
2022-07-28T18:06:48.429Z,19.35
2022-07-28T18:09:28.439Z,18.48
2022-07-28T18:12:23.423Z,18.80
2022-07-28T18:15:14.497Z,18.05
2022-07-28T18:17:55.904Z,18.52
2022-07-28T18:20:49.428Z,19.17
2022-07-28T18:23:43.411Z,19.33
2022-07-28T18:26:30.444Z,18.23
2022-07-28T18:29:03.512Z,19.30
2022-07-28T18:31:50.538Z,18.98
2022-07-28T18:34:24.947Z,17.35
2022-07-28T18:37:12.429Z,18.45
2022-07-28T18:39:53.411Z,18.95
2022-07-28T18:42:40.439Z,19.35
2022-07-28T18:45:21.434Z,21.90
2022-07-28T18:48:17.423Z,20.08
2022-07-28T18:51:11.441Z,20.10
2022-07-28T18:53:58.441Z,18.80
2022-07-28T18:56:38.447Z,18.33
2022-07-28T18:59:25.498Z,19.33
2022-07-28T19:01:58.653Z,19.48
2022-07-28T19:04:45.508Z,19.27
2022-07-28T19:07:26.443Z,18.42
2022-07-28T19:10:20.496Z,19.95
2022-07-28T19:13:12.291Z,18.60
2022-07-28T19:15:47.560Z,20.67
2022-07-28T19:18:34.477Z,19.67
2022-07-28T19:21:08.273Z,20.35
2022-07-28T19:23:55.507Z,20.65
2022-07-28T19:26:28.536Z,20.02
2022-07-28T19:29:15.509Z,18.38
2022-07-28T19:31:48.581Z,20.85
2022-07-28T19:34:36.477Z,21.58
2022-07-28T19:37:09.556Z,20.63
2022-07-28T19:39:56.479Z,21.77
2022-07-28T19:42:38.470Z,21.23
2022-07-28T19:45:12.589Z,21.75
2022-07-28T19:48:01.494Z,21.38
2022-07-28T19:50:45.969Z,20.63
2022-07-28T19:53:36.868Z,21.95
2022-07-28T19:56:18.472Z,21.67
2022-07-28T19:59:12.480Z,22.27
2022-07-28T20:02:06.550Z,20.35
2022-07-28T20:04:53.492Z,20.52
2022-07-28T20:07:26.548Z,21.45
2022-07-28T20:10:13.502Z,21.65
2022-07-28T20:12:47.496Z,21.75
2022-07-28T20:15:34.482Z,21.10
2022-07-28T20:18:07.551Z,19.90
2022-07-28T20:20:55.501Z,20.42
2022-07-28T20:23:28.563Z,21.42
2022-07-28T20:26:16.488Z,21.42
2022-07-28T20:28:49.742Z,22.10
2022-07-28T20:31:37.497Z,21.73
2022-07-28T20:34:19.633Z,23.15
2022-07-28T20:37:18.942Z,23.30
2022-07-28T20:40:20.553Z,20.88
2022-07-28T20:42:53.628Z,20.65
2022-07-28T20:45:40.530Z,21.15
2022-07-28T20:48:14.441Z,23.05
2022-07-28T20:51:01.494Z,22.65
2022-07-28T20:53:34.635Z,21.73
2022-07-28T20:56:21.524Z,23.80
2022-07-28T20:58:54.624Z,21.95
2022-07-28T21:01:41.564Z,23.05
2022-07-28T21:04:22.506Z,21.15
2022-07-28T21:08:00.603Z,21.95
2022-07-28T21:10:32.513Z,23.83
2022-07-28T21:13:19.540Z,24.23
2022-07-28T21:15:52.604Z,23.23
2022-07-28T21:18:39.520Z,24.23
2022-07-28T21:21:12.633Z,23.77
2022-07-28T21:23:59.516Z,24.48
2022-07-28T21:26:32.646Z,22.02
2022-07-28T21:32:05.457Z,23.92
2022-07-28T21:34:59.615Z,23.30
2022-07-28T21:37:46.522Z,24.75
2022-07-28T21:40:19.668Z,25.00
2022-07-28T21:43:06.519Z,23.45
2022-07-28T21:45:40.700Z,24.15
2022-07-28T21:48:30.596Z,22.77
2022-07-28T21:51:16.405Z,22.70
2022-07-28T21:54:06.534Z,22.88
2022-07-28T21:56:46.620Z,24.92
2022-07-28T21:59:33.652Z,24.20
2022-07-28T22:02:06.647Z,21.80
2022-07-28T22:04:54.556Z,22.52
2022-07-28T22:07:27.696Z,22.27
2022-07-28T22:10:14.576Z,23.48
2022-07-28T22:12:54.622Z,21.50
2022-07-28T22:15:48.718Z,22.67
2022-07-28T22:18:42.605Z,21.58
2022-07-28T22:21:29.567Z,21.80
2022-07-28T22:24:02.700Z,20.85
2022-07-28T22:26:49.595Z,22.23
2022-07-28T22:29:22.774Z,21.15
2022-07-28T22:32:10.626Z,21.88
2022-07-28T22:34:43.627Z,23.30
2022-07-28T22:37:30.565Z,22.45
2022-07-28T22:40:03.729Z,21.35
2022-07-28T22:42:54.573Z,22.23
2022-07-28T22:45:49.770Z,20.58
2022-07-28T22:48:34.609Z,22.02
2022-07-28T22:51:07.695Z,22.42
2022-07-28T22:53:54.569Z,22.17
2022-07-28T22:56:37.317Z,21.35
2022-07-28T22:59:37.239Z,22.30
2022-07-28T23:02:26.581Z,21.90
2022-07-28T23:04:59.712Z,24.30
2022-07-28T23:07:48.585Z,22.92
2022-07-28T23:10:25.710Z,24.17
2022-07-28T23:13:12.586Z,24.45
2022-07-28T23:15:45.682Z,22.27
2022-07-28T23:18:32.607Z,22.23
2022-07-28T23:21:05.694Z,22.38
2022-07-28T23:23:52.594Z,21.67
2022-07-28T23:26:25.664Z,23.77
2022-07-28T23:29:12.575Z,22.98
2022-07-28T23:31:45.713Z,23.75
2022-07-28T23:34:32.619Z,23.60
2022-07-28T23:37:12.599Z,21.33
2022-07-28T23:39:59.596Z,21.48
2022-07-28T23:42:39.583Z,23.35
2022-07-28T23:45:33.602Z,22.60
2022-07-28T23:48:20.602Z,22.13
2022-07-28T23:51:00.605Z,21.33
2022-07-28T23:53:56.528Z,23.30
2022-07-28T23:56:43.691Z,22.77
2022-07-28T23:59:23.608Z,22.80
